Time;durP1;ratioP1;P1;durP2;ratioP2;P2;SDS_P1;SDS_P2;PMS_P1;PMS_P2;Temp;Humidity;BMP_temperature;BMP_pressure;BME280_temperature;BME280_humidity;BME280_pressure;Samples;Min_cycle;Max_cycle;Signal;HPM_P1;HPM_P2
2021/03/01 00:00:33;;;;;;;46.93;11.50;;;3.40;94.70;;;;;;5095175;28;20172;-84
2021/03/01 00:03:04;;;;;;;47.43;12.13;;;3.40;94.80;;;;;;5094883;28;20197;-84
2021/03/01 00:05:39;;;;;;;56.43;14.03;;;3.40;94.70;;;;;;5076712;28;20174;-85
2021/03/01 00:08:20;;;;;;;61.40;13.30;;;3.50;94.80;;;;;;5094858;28;20164;-84
2021/03/01 00:10:47;;;;;;;50.03;12.50;;;3.50;94.70;;;;;;5095208;28;20164;-85
2021/03/01 00:13:24;;;;;;;35.07;12.77;;;3.50;94.80;;;;;;5094916;28;20193;-84
2021/03/01 00:16:01;;;;;;;57.00;13.33;;;3.50;94.80;;;;;;5077414;28;20192;-84
2021/03/01 00:18:33;;;;;;;38.57;10.87;;;3.50;94.80;;;;;;5076472;28;20168;-84
2021/03/01 00:20:59;;;;;;;30.50;11.87;;;3.50;94.70;;;;;;5094574;28;20167;-84
2021/03/01 00:23:33;;;;;;;34.47;11.70;;;3.50;94.70;;;;;;5076676;28;20224;-84
2021/03/01 00:25:59;;;;;;;31.67;11.23;;;3.50;94.70;;;;;;5094592;28;20193;-84
2021/03/01 00:28:31;;;;;;;40.20;12.87;;;3.50;94.70;;;;;;5076338;28;20562;-84
2021/03/01 00:31:03;;;;;;;46.60;13.80;;;3.50;94.80;;;;;;5094493;28;20257;-84
2021/03/01 00:33:35;;;;;;;28.17;12.23;;;3.50;94.80;;;;;;5093489;28;20212;-84
2021/03/01 00:36:01;;;;;;;38.63;13.33;;;3.60;94.70;;;;;;5094260;28;20199;-84
2021/03/01 00:38:38;;;;;;;31.90;11.77;;;3.50;94.80;;;;;;5094349;28;20224;-84
2021/03/01 00:41:11;;;;;;;34.40;12.03;;;3.50;94.80;;;;;;5094477;28;20165;-84
2021/03/01 00:43:47;;;;;;;40.47;12.73;;;3.50;94.80;;;;;;5094222;28;20244;-84
2021/03/01 00:46:21;;;;;;;35.90;12.83;;;3.60;94.80;;;;;;5094318;28;20648;-84
2021/03/01 00:48:58;;;;;;;33.33;13.17;;;3.50;94.80;;;;;;5075969;28;20178;-84
2021/03/01 00:51:29;;;;;;;40.87;14.30;;;3.60;94.80;;;;;;5094399;28;20532;-84
2021/03/01 00:54:01;;;;;;;36.20;13.13;;;3.70;94.70;;;;;;5094046;28;20318;-84
2021/03/01 00:56:33;;;;;;;34.07;13.50;;;3.70;94.60;;;;;;5094571;28;20191;-84
2021/03/01 00:58:59;;;;;;;38.50;14.63;;;3.60;94.70;;;;;;5075767;28;20223;-84
2021/03/01 01:01:31;;;;;;;42.10;13.87;;;3.60;94.60;;;;;;5094272;28;20639;-84
2021/03/01 01:04:03;;;;;;;38.23;14.20;;;3.70;94.70;;;;;;5093882;28;20197;-84
2021/03/01 01:06:33;;;;;;;32.67;12.33;;;3.60;94.70;;;;;;5093804;28;20178;-84
2021/03/01 01:09:04;;;;;;;40.30;12.67;;;3.60;94.60;;;;;;5075599;28;20182;-84
2021/03/01 01:11:37;;;;;;;37.67;13.03;;;3.60;94.60;;;;;;5094602;28;20544;-84
2021/03/01 01:14:03;;;;;;;26.43;11.80;;;3.60;94.60;;;;;;5093778;28;20190;-84
2021/03/01 01:16:32;;;;;;;29.70;11.57;;;3.60;94.60;;;;;;5075381;28;20232;-84
2021/03/01 01:19:04;;;;;;;32.97;11.77;;;3.60;94.60;;;;;;5093673;28;20613;-84
2021/03/01 01:21:34;;;;;;;32.43;11.17;;;3.60;94.50;;;;;;5075507;28;20595;-84
2021/03/01 01:24:04;;;;;;;44.73;12.37;;;3.50;94.50;;;;;;5093464;28;20244;-84
2021/03/01 01:26:40;;;;;;;29.13;11.37;;;3.50;94.50;;;;;;5093591;28;20204;-84
2021/03/01 01:29:11;;;;;;;35.23;11.77;;;3.50;94.50;;;;;;5075419;28;20265;-84
2021/03/01 01:31:45;;;;;;;35.83;11.30;;;3.50;94.50;;;;;;5075278;28;20548;-84
2021/03/01 01:34:13;;;;;;;32.60;11.93;;;3.50;94.50;;;;;;5075192;28;20287;-85
2021/03/01 01:36:39;;;;;;;28.13;11.00;;;3.50;94.50;;;;;;5075178;28;20288;-84
2021/03/01 01:39:13;;;;;;;32.70;10.87;;;3.40;94.60;;;;;;5093747;28;20174;-84
2021/03/01 01:41:45;;;;;;;31.87;11.83;;;3.50;94.60;;;;;;5075371;28;20273;-84
2021/03/01 01:44:19;;;;;;;35.27;12.17;;;3.50;94.60;;;;;;5092907;28;20696;-84
2021/03/01 01:46:54;;;;;;;37.40;12.97;;;3.50;94.50;;;;;;5075186;28;20203;-84
2021/03/01 01:49:22;;;;;;;31.77;12.27;;;3.50;94.50;;;;;;5093677;28;20165;-84
2021/03/01 01:51:57;;;;;;;28.63;10.60;;;3.50;94.40;;;;;;5093277;28;20175;-84
2021/03/01 01:54:23;;;;;;;29.73;11.63;;;3.50;94.40;;;;;;5093330;28;20200;-84
2021/03/01 01:57:01;;;;;;;29.73;11.53;;;3.50;94.40;;;;;;5075004;28;20201;-85
2021/03/01 01:59:36;;;;;;;28.97;11.23;;;3.50;94.30;;;;;;5093202;28;20172;-84
2021/03/01 02:02:21;;;;;;;34.23;12.87;;;3.60;94.30;;;;;;5076071;28;20240;-84
2021/03/01 02:04:53;;;;;;;40.83;14.53;;;3.40;94.40;;;;;;5093096;28;20190;-84
2021/03/01 02:07:41;;;;;;;29.90;12.37;;;3.50;94.40;;;;;;5074906;28;20637;-84
2021/03/01 02:10:38;;;;;;;29.87;11.83;;;3.50;94.40;;;;;;5093062;28;20659;-84
2021/03/01 02:13:37;;;;;;;30.83;11.60;;;3.50;94.40;;;;;;5074824;28;20191;-84
2021/03/01 02:16:16;;;;;;;27.00;9.97;;;3.50;94.30;;;;;;5093189;28;20625;-84
2021/03/01 02:18:46;;;;;;;30.00;10.87;;;3.40;94.30;;;;;;5074869;28;20528;-84
2021/03/01 02:21:18;;;;;;;28.87;10.57;;;3.50;94.30;;;;;;5075908;28;20540;-84
2021/03/01 02:23:51;;;;;;;27.43;10.30;;;3.40;94.40;;;;;;5074772;28;20197;-84
2021/03/01 02:26:37;;;;;;;27.03;11.40;;;3.50;94.30;;;;;;5092909;28;20547;-84
2021/03/01 02:29:16;;;;;;;25.80;10.57;;;3.50;94.30;;;;;;5092861;28;20256;-84
2021/03/01 02:31:51;;;;;;;31.47;12.33;;;3.50;94.30;;;;;;5074870;28;20611;-84
2021/03/01 02:34:22;;;;;;;24.47;9.73;;;3.50;94.30;;;;;;5092810;28;20194;-84
2021/03/01 02:37:03;;;;;;;27.43;10.17;;;3.50;94.20;;;;;;5092751;28;20217;-85
2021/03/01 02:39:45;;;;;;;24.53;8.77;;;3.40;94.20;;;;;;5092776;28;20252;-84
2021/03/01 02:42:25;;;;;;;23.90;9.50;;;3.50;94.10;;;;;;5074669;28;20273;-84
2021/03/01 02:44:54;;;;;;;24.07;10.73;;;3.50;94.10;;;;;;5092717;28;20285;-84
2021/03/01 02:47:31;;;;;;;35.63;11.80;;;3.40;94.10;;;;;;5092711;28;20185;-84
2021/03/01 02:50:03;;;;;;;34.73;12.87;;;3.40;94.10;;;;;;5092714;28;20537;-84
2021/03/01 02:52:30;;;;;;;29.63;12.77;;;3.50;94.00;;;;;;5092663;28;20189;-84
2021/03/01 02:54:58;;;;;;;33.30;11.70;;;3.40;94.00;;;;;;5074643;28;20582;-84
2021/03/01 02:57:31;;;;;;;31.90;13.50;;;3.40;94.10;;;;;;5078161;28;20236;-84
2021/03/01 02:59:58;;;;;;;36.40;13.03;;;3.50;94.00;;;;;;5078146;28;20177;-85
2021/03/01 03:02:33;;;;;;;28.97;12.27;;;3.50;94.00;;;;;;5096902;28;20201;-84
2021/03/01 03:05:02;;;;;;;24.93;10.83;;;3.50;94.00;;;;;;5096243;28;20268;-84
2021/03/01 03:07:37;;;;;;;27.67;10.17;;;3.40;93.90;;;;;;5096158;28;20177;-84
2021/03/01 03:10:09;;;;;;;25.40;10.33;;;3.40;93.90;;;;;;5096638;28;20166;-84
2021/03/01 03:12:48;;;;;;;22.63;10.03;;;3.50;93.90;;;;;;5096061;28;20674;-84
2021/03/01 03:15:25;;;;;;;32.00;12.30;;;3.40;93.80;;;;;;5077728;28;20209;-85
2021/03/01 03:17:58;;;;;;;27.57;12.10;;;3.40;93.80;;;;;;5077856;28;20181;-84
2021/03/01 03:20:31;;;;;;;28.07;11.87;;;3.30;93.80;;;;;;5077696;28;20646;-84
2021/03/01 03:23:03;;;;;;;32.70;11.97;;;3.30;93.90;;;;;;5095778;28;20196;-84
2021/03/01 03:25:29;;;;;;;34.70;13.47;;;3.40;93.90;;;;;;5095917;28;20176;-84
2021/03/01 03:28:03;;;;;;;30.40;11.87;;;3.40;94.00;;;;;;5077577;28;20182;-84
2021/03/01 03:30:37;;;;;;;33.20;13.30;;;3.30;93.90;;;;;;5077599;28;20182;-84
2021/03/01 03:33:13;;;;;;;31.07;12.53;;;3.30;93.90;;;;;;5095791;28;20191;-84
2021/03/01 03:35:46;;;;;;;28.90;11.83;;;3.40;93.90;;;;;;5095817;28;20681;-84
2021/03/01 03:38:22;;;;;;;31.70;12.10;;;3.40;93.90;;;;;;5077418;28;20203;-84
2021/03/01 03:41:01;;;;;;;38.13;13.07;;;3.40;93.90;;;;;;5096046;28;20524;-84
2021/03/01 03:43:33;;;;;;;32.50;13.10;;;3.40;93.90;;;;;;5077291;28;20292;-84
2021/03/01 03:46:04;;;;;;;41.37;14.00;;;3.40;94.00;;;;;;5095453;28;20662;-84
2021/03/01 03:48:41;;;;;;;39.17;14.90;;;3.40;94.00;;;;;;5095707;28;20169;-84
2021/03/01 03:51:15;;;;;;;30.97;12.83;;;3.30;94.00;;;;;;5095354;28;20264;-84
2021/03/01 03:54:00;;;;;;;30.10;13.50;;;3.40;94.00;;;;;;5095183;28;20201;-84
2021/03/01 03:56:42;;;;;;;39.33;14.83;;;3.40;94.00;;;;;;5077011;28;20232;-84
2021/03/01 03:59:17;;;;;;;32.33;14.10;;;3.40;93.90;;;;;;5077023;28;20220;-84
2021/03/01 04:01:54;;;;;;;36.97;13.40;;;3.40;94.00;;;;;;5077511;28;20187;-84
2021/03/01 04:04:27;;;;;;;36.93;14.63;;;3.40;93.90;;;;;;5095229;28;20277;-84
2021/03/01 04:07:10;;;;;;;29.13;13.37;;;3.30;93.90;;;;;;5095142;28;20230;-84
2021/03/01 04:09:41;;;;;;;32.23;13.80;;;3.50;93.90;;;;;;5094930;28;20646;-84
2021/03/01 04:12:18;;;;;;;32.67;14.07;;;3.40;93.80;;;;;;5076715;28;20589;-84
2021/03/01 04:14:55;;;;;;;31.87;14.30;;;3.40;93.70;;;;;;5094688;28;20198;-84
2021/03/01 04:17:31;;;;;;;38.60;15.40;;;3.40;93.70;;;;;;5094792;28;20640;-84
2021/03/01 04:20:06;;;;;;;38.77;15.53;;;3.30;93.60;;;;;;5094721;28;20172;-84
2021/03/01 04:22:36;;;;;;;40.37;15.40;;;3.30;93.70;;;;;;5076468;28;20197;-84
2021/03/01 04:25:05;;;;;;;44.30;16.77;;;3.30;93.70;;;;;;5094957;28;20172;-84
2021/03/01 04:27:41;;;;;;;44.43;16.77;;;3.20;93.80;;;;;;5076476;28;20219;-83
2021/03/01 04:30:16;;;;;;;48.37;18.37;;;3.20;93.90;;;;;;5094551;28;20230;-84
2021/03/01 04:32:54;;;;;;;45.93;18.20;;;3.20;93.90;;;;;;5094509;28;20246;-84
2021/03/01 04:35:31;;;;;;;45.47;17.87;;;3.20;93.90;;;;;;5094291;28;20250;-84
2021/03/01 04:38:04;;;;;;;53.17;19.73;;;3.20;93.90;;;;;;5076681;28;20540;-84
2021/03/01 04:40:40;;;;;;;48.73;17.73;;;3.20;93.80;;;;;;5094367;28;20169;-84
2021/03/01 04:43:19;;;;;;;40.17;16.87;;;3.20;93.80;;;;;;5094275;28;20571;-84
2021/03/01 04:45:53;;;;;;;41.33;16.93;;;3.20;93.70;;;;;;5094530;28;20264;-85
2021/03/01 04:48:26;;;;;;;42.40;15.57;;;3.30;93.60;;;;;;5094541;28;20208;-84
2021/03/01 04:50:59;;;;;;;44.03;17.47;;;3.20;93.60;;;;;;5094547;28;20157;-85
2021/03/01 04:53:33;;;;;;;46.77;17.20;;;3.20;93.60;;;;;;5075782;28;20696;-84
2021/03/01 04:56:11;;;;;;;41.63;17.47;;;3.20;93.60;;;;;;5094066;28;20190;-85
2021/03/01 04:58:47;;;;;;;38.60;17.10;;;3.20;93.60;;;;;;5075870;28;20642;-84
2021/03/01 05:01:21;;;;;;;38.47;15.80;;;3.20;93.60;;;;;;5094076;28;20168;-84
2021/03/01 05:03:51;;;;;;;38.40;16.03;;;3.30;93.60;;;;;;5093903;28;20246;-84
2021/03/01 05:06:20;;;;;;;35.43;15.53;;;3.30;93.50;;;;;;5076240;28;20177;-84
2021/03/01 05:08:49;;;;;;;36.23;15.43;;;3.30;93.50;;;;;;5075753;28;20185;-85
2021/03/01 05:11:35;;;;;;;39.00;17.27;;;3.30;93.40;;;;;;5093808;28;20646;-84
2021/03/01 05:14:02;;;;;;;38.07;16.73;;;3.30;93.40;;;;;;5093680;28;20284;-84
2021/03/01 05:16:33;;;;;;;46.90;18.03;;;3.30;93.40;;;;;;5093685;28;20198;-84
2021/03/01 05:19:09;;;;;;;36.90;16.33;;;3.20;93.50;;;;;;5093196;28;20670;-84
2021/03/01 05:21:41;;;;;;;40.03;16.93;;;3.30;93.50;;;;;;5093681;28;20653;-84
2021/03/01 05:24:11;;;;;;;44.80;17.23;;;3.20;93.50;;;;;;5093536;28;20239;-84
2021/03/01 05:26:44;;;;;;;33.10;16.07;;;3.10;93.50;;;;;;5093624;28;20679;-84
2021/03/01 05:29:18;;;;;;;32.37;14.83;;;3.10;93.50;;;;;;5093587;28;20244;-84
2021/03/01 05:31:50;;;;;;;31.20;13.93;;;3.20;93.50;;;;;;5075420;28;20227;-84
2021/03/01 05:34:21;;;;;;;35.53;15.27;;;3.10;93.40;;;;;;5075300;28;20217;-84
2021/03/01 05:36:55;;;;;;;33.57;14.43;;;3.00;93.50;;;;;;5093719;28;20560;-84
2021/03/01 05:39:21;;;;;;;35.67;14.30;;;3.10;93.40;;;;;;5093729;28;20185;-84
2021/03/01 05:41:59;;;;;;;28.33;13.83;;;3.00;93.40;;;;;;5075294;28;20557;-85
2021/03/01 05:44:38;;;;;;;28.00;13.57;;;3.10;93.40;;;;;;5075124;28;20204;-84
2021/03/01 05:47:14;;;;;;;27.13;12.87;;;3.10;93.30;;;;;;5093662;28;20193;-84
2021/03/01 05:49:46;;;;;;;28.97;13.63;;;3.10;93.30;;;;;;5093276;28;20226;-84
2021/03/01 05:52:21;;;;;;;27.67;13.47;;;3.20;93.30;;;;;;5093292;28;20537;-84
2021/03/01 05:54:53;;;;;;;24.80;12.47;;;3.20;93.30;;;;;;5093173;28;20199;-84
2021/03/01 05:57:24;;;;;;;26.63;12.70;;;3.20;93.20;;;;;;5093157;28;20556;-84
2021/03/01 05:59:59;;;;;;;26.77;11.93;;;3.20;93.20;;;;;;5075159;28;20174;-84
2021/03/01 06:02:37;;;;;;;21.83;12.07;;;3.30;93.20;;;;;;5075120;28;20214;-85
2021/03/01 06:05:11;;;;;;;21.00;11.93;;;3.30;93.10;;;;;;5075350;28;20182;-84
2021/03/01 06:07:44;;;;;;;26.40;13.00;;;3.30;93.10;;;;;;5093680;28;20534;-84
2021/03/01 06:10:16;;;;;;;24.73;12.93;;;3.30;93.00;;;;;;5093084;28;20162;-84
2021/03/01 06:12:46;;;;;;;26.03;13.73;;;3.30;93.00;;;;;;5093078;28;20182;-83
2021/03/01 06:15:24;;;;;;;26.87;13.20;;;3.30;93.00;;;;;;5092957;28;20694;-84
2021/03/01 06:18:11;;;;;;;21.67;11.90;;;3.30;92.90;;;;;;5093009;28;20579;-84
2021/03/01 06:20:46;;;;;;;26.97;13.77;;;3.20;92.90;;;;;;5093038;28;20184;-84
2021/03/01 06:23:33;;;;;;;21.10;12.47;;;3.20;92.80;;;;;;5074778;28;20681;-84
2021/03/01 06:26:24;;;;;;;22.37;12.20;;;3.30;92.80;;;;;;5093193;28;20177;-84
2021/03/01 06:29:09;;;;;;;21.67;11.97;;;3.20;92.70;;;;;;5074862;28;20185;-84
2021/03/01 06:31:48;;;;;;;21.50;11.33;;;3.10;92.60;;;;;;5095749;28;20672;-84
2021/03/01 06:34:24;;;;;;;22.37;11.27;;;3.10;92.40;;;;;;5096771;28;20186;-84
2021/03/01 06:37:11;;;;;;;25.33;13.30;;;3.20;92.50;;;;;;5078522;28;20221;-84
2021/03/01 06:39:55;;;;;;;26.03;13.93;;;3.00;92.60;;;;;;5097101;28;20157;-84
2021/03/01 06:42:28;;;;;;;25.23;12.47;;;3.10;92.70;;;;;;5078433;28;20177;-84
2021/03/01 06:45:03;;;;;;;25.27;13.97;;;3.10;92.70;;;;;;5096414;28;20286;-84
2021/03/01 06:47:48;;;;;;;22.97;12.43;;;3.20;92.80;;;;;;5096614;28;20177;-84
2021/03/01 06:50:44;;;;;;;21.83;12.43;;;3.20;92.80;;;;;;5096600;28;20634;-84
2021/03/01 06:53:15;;;;;;;26.13;12.10;;;3.20;92.70;;;;;;5096422;28;20248;-84
2021/03/01 06:56:01;;;;;;;25.60;13.03;;;3.20;92.60;;;;;;5096755;28;20197;-84
2021/03/01 06:58:37;;;;;;;21.87;12.60;;;3.20;92.60;;;;;;5078574;28;20607;-84
2021/03/01 07:01:20;;;;;;;23.23;11.83;;;3.20;92.60;;;;;;5096238;28;20166;-84
2021/03/01 07:03:52;;;;;;;29.40;13.57;;;3.20;92.60;;;;;;5096274;28;20670;-84
2021/03/01 07:06:19;;;;;;;24.73;13.63;;;3.10;92.60;;;;;;5096391;28;20591;-84
2021/03/01 07:09:01;;;;;;;25.27;12.90;;;3.20;92.50;;;;;;5096231;28;20171;-84
2021/03/01 07:11:36;;;;;;;24.27;11.03;;;3.20;92.50;;;;;;5096953;28;20545;-84
2021/03/01 07:14:10;;;;;;;21.83;10.67;;;3.20;92.40;;;;;;5077756;28;20196;-84
2021/03/01 07:16:55;;;;;;;19.93;11.47;;;3.20;92.40;;;;;;5095947;28;20281;-85
2021/03/01 07:19:31;;;;;;;25.60;12.03;;;3.30;92.30;;;;;;5095976;28;20645;-84
2021/03/01 07:22:05;;;;;;;23.20;11.60;;;3.20;92.20;;;;;;5095985;28;20155;-84
2021/03/01 07:24:43;;;;;;;21.83;12.27;;;3.30;92.20;;;;;;5095765;28;20196;-84
2021/03/01 07:27:16;;;;;;;24.70;12.10;;;3.20;92.30;;;;;;5096142;28;20165;-84
2021/03/01 07:29:52;;;;;;;25.33;11.80;;;3.30;92.30;;;;;;5077702;28;20178;-84
2021/03/01 07:32:24;;;;;;;19.90;10.17;;;3.30;92.30;;;;;;5095638;28;20184;-84
2021/03/01 07:34:52;;;;;;;24.27;11.47;;;3.30;92.20;;;;;;5077355;28;20281;-84
2021/03/01 07:37:27;;;;;;;21.10;10.77;;;3.40;92.20;;;;;;5095612;28;20246;-84
2021/03/01 07:39:56;;;;;;;21.17;11.60;;;3.30;92.00;;;;;;5095578;28;20656;-84
2021/03/01 07:42:33;;;;;;;21.83;11.50;;;3.40;92.00;;;;;;5095101;28;20220;-84
2021/03/01 07:45:02;;;;;;;24.73;12.00;;;3.30;92.10;;;;;;5077207;28;20288;-84
2021/03/01 07:47:29;;;;;;;23.00;11.50;;;3.20;92.10;;;;;;5095419;28;20205;-84
2021/03/01 07:49:55;;;;;;;27.83;12.40;;;3.20;92.20;;;;;;5095103;28;20231;-84
2021/03/01 07:52:32;;;;;;;26.53;13.27;;;3.20;92.30;;;;;;5095614;28;20224;-84
2021/03/01 07:55:05;;;;;;;27.20;12.83;;;3.30;92.30;;;;;;5077133;28;20284;-84
2021/03/01 07:57:40;;;;;;;26.57;12.17;;;3.30;92.30;;;;;;5095283;28;20212;-83
2021/03/01 08:00:30;;;;;;;21.27;11.83;;;3.40;92.30;;;;;;5077506;28;20236;-84
2021/03/01 08:03:21;;;;;;;26.03;11.70;;;3.50;92.20;;;;;;5095015;28;20658;-84
2021/03/01 08:05:53;;;;;;;25.17;12.47;;;3.50;92.30;;;;;;5094936;28;20186;-84
2021/03/01 08:08:43;;;;;;;26.83;10.70;;;3.50;92.40;;;;;;5095021;28;20173;-84
2021/03/01 08:11:42;;;;;;;24.20;11.77;;;3.40;92.30;;;;;;5094979;28;20664;-84
2021/03/01 08:14:13;;;;;;;27.30;12.60;;;3.40;92.40;;;;;;5094743;28;20197;-84
2021/03/01 08:16:49;;;;;;;25.10;11.20;;;3.50;92.30;;;;;;5076770;28;20209;-84
2021/03/01 08:19:43;;;;;;;25.70;12.13;;;3.50;92.50;;;;;;5094810;28;20694;-85
2021/03/01 08:22:15;;;;;;;26.97;11.87;;;3.50;92.50;;;;;;5094745;28;20257;-84
2021/03/01 08:24:51;;;;;;;24.50;10.97;;;3.50;92.70;;;;;;5094531;28;20186;-83
2021/03/01 08:27:31;;;;;;;28.50;13.17;;;3.30;92.80;;;;;;5094343;28;20252;-84
2021/03/01 08:30:23;;;;;;;27.33;12.03;;;3.40;92.80;;;;;;5076286;28;20223;-84
2021/03/01 08:33:25;;;;;;;33.47;13.03;;;3.30;93.00;;;;;;5094548;28;20242;-83
2021/03/01 08:36:17;;;;;;;29.87;12.37;;;3.30;93.30;;;;;;5051565;28;20206;-84
2021/03/01 08:38:53;;;;;;;26.43;12.20;;;3.50;93.40;;;;;;5094508;28;20186;-85
2021/03/01 08:41:35;;;;;;;27.67;11.83;;;3.60;93.30;;;;;;5076300;28;20200;-83
2021/03/01 08:44:15;;;;;;;42.57;22.80;;;3.70;93.30;;;;;;5076317;28;20258;-84
2021/03/01 08:46:41;;;;;;;25.83;12.67;;;3.80;93.20;;;;;;5094296;28;20187;-84
2021/03/01 08:49:06;;;;;;;22.13;11.13;;;3.70;93.10;;;;;;5076124;28;20178;-84
2021/03/01 08:51:35;;;;;;;20.13;10.43;;;3.70;93.00;;;;;;5076112;28;20226;-84
2021/03/01 08:54:01;;;;;;;23.80;10.27;;;3.70;92.90;;;;;;5093385;28;20670;-84
2021/03/01 08:56:27;;;;;;;27.07;11.00;;;3.50;92.80;;;;;;5076018;28;20258;-84
2021/03/01 08:58:53;;;;;;;20.17;10.17;;;3.70;92.90;;;;;;5094048;28;20601;-85
2021/03/01 09:01:19;;;;;;;23.83;10.17;;;3.70;92.80;;;;;;5075909;28;20178;-84
2021/03/01 09:03:57;;;;;;;18.90;10.03;;;3.80;92.70;;;;;;5075857;28;20208;-83
2021/03/01 09:06:31;;;;;;;19.37;10.03;;;3.80;92.40;;;;;;5094065;28;20178;-84
2021/03/01 09:09:04;;;;;;;22.30;10.13;;;3.80;92.40;;;;;;5094532;28;20266;-83
2021/03/01 09:11:30;;;;;;;23.03;10.50;;;3.70;92.50;;;;;;5093853;28;20185;-84
2021/03/01 09:14:05;;;;;;;23.30;11.00;;;3.80;92.60;;;;;;5093783;28;20246;-84
2021/03/01 09:16:42;;;;;;;24.07;11.50;;;3.80;92.60;;;;;;5094028;28;20191;-85
2021/03/01 09:19:17;;;;;;;21.03;10.67;;;3.80;92.60;;;;;;5093747;28;20173;-85
2021/03/01 09:21:56;;;;;;;22.30;10.10;;;3.90;92.50;;;;;;5093985;28;20170;-84
2021/03/01 09:24:22;;;;;;;22.17;10.07;;;3.80;92.30;;;;;;5093532;28;20674;-84
2021/03/01 09:26:55;;;;;;;22.23;11.00;;;3.80;92.40;;;;;;5093743;28;20262;-84
2021/03/01 09:29:23;;;;;;;24.47;11.50;;;3.80;92.70;;;;;;5075480;28;20170;-84
2021/03/01 09:32:01;;;;;;;27.17;12.03;;;3.90;92.60;;;;;;5093451;28;20627;-85
2021/03/01 09:34:38;;;;;;;25.93;11.43;;;3.80;92.50;;;;;;5093450;28;20191;-85
2021/03/01 09:37:11;;;;;;;22.70;10.60;;;3.80;92.80;;;;;;5093330;28;20184;-84
2021/03/01 09:39:42;;;;;;;25.80;10.87;;;3.90;92.90;;;;;;5093434;28;20167;-84
2021/03/01 09:42:20;;;;;;;22.10;11.33;;;4.00;92.90;;;;;;5093388;28;20180;-84
2021/03/01 09:44:57;;;;;;;21.43;11.00;;;4.00;92.70;;;;;;5093382;28;20210;-85
2021/03/01 09:47:31;;;;;;;22.83;11.57;;;3.90;92.70;;;;;;5093406;28;20155;-85
2021/03/01 09:50:03;;;;;;;25.07;11.47;;;4.00;92.80;;;;;;5093580;28;20174;-85
2021/03/01 09:52:40;;;;;;;25.80;11.27;;;3.90;92.70;;;;;;5093314;28;20235;-84
2021/03/01 09:55:21;;;;;;;21.63;10.77;;;3.90;92.70;;;;;;5075576;28;20177;-85
2021/03/01 09:57:58;;;;;;;22.53;10.97;;;3.80;92.70;;;;;;5075156;28;20170;-84
2021/03/01 10:00:32;;;;;;;24.60;11.00;;;3.80;92.70;;;;;;5093528;28;20162;-84
2021/03/01 10:03:09;;;;;;;28.57;11.10;;;3.90;92.60;;;;;;5074966;28;20193;-84
2021/03/01 10:05:51;;;;;;;23.50;11.53;;;4.00;92.60;;;;;;5078168;28;20176;-84
2021/03/01 10:08:27;;;;;;;23.80;10.30;;;4.00;92.60;;;;;;5097438;28;20166;-84
2021/03/01 10:10:56;;;;;;;21.00;11.13;;;4.10;92.40;;;;;;5097324;28;20260;-83
2021/03/01 10:13:33;;;;;;;28.57;12.57;;;4.20;92.50;;;;;;5097192;28;20194;-83
2021/03/01 10:16:03;;;;;;;25.00;10.20;;;4.20;92.50;;;;;;5097421;28;20603;-84
2021/03/01 10:18:37;;;;;;;19.37;9.63;;;4.10;92.30;;;;;;5079116;28;20252;-84
2021/03/01 10:21:07;;;;;;;19.73;9.90;;;4.00;92.30;;;;;;5096983;28;20551;-84
2021/03/01 10:23:44;;;;;;;28.77;10.53;;;4.10;92.50;;;;;;5096960;28;20236;-84
2021/03/01 10:26:21;;;;;;;21.30;10.17;;;4.00;92.60;;;;;;5097471;28;20194;-84
2021/03/01 10:29:01;;;;;;;20.73;10.33;;;4.00;92.80;;;;;;5097097;28;20662;-84
2021/03/01 10:31:41;;;;;;;18.03;10.03;;;4.00;92.70;;;;;;5097275;28;20193;-84
2021/03/01 10:34:13;;;;;;;20.73;9.80;;;4.10;92.70;;;;;;5097045;28;20193;-85
2021/03/01 10:36:42;;;;;;;18.53;9.70;;;4.20;92.60;;;;;;5078504;28;20677;-86
2021/03/01 10:39:29;;;;;;;19.70;9.97;;;4.30;92.50;;;;;;5096999;28;20170;-84
2021/03/01 10:42:03;;;;;;;18.10;8.60;;;4.40;92.40;;;;;;5096686;28;20174;-86
2021/03/01 10:44:40;;;;;;;21.00;9.53;;;4.40;92.20;;;;;;5096451;28;20372;-85
2021/03/01 10:47:21;;;;;;;17.33;9.10;;;4.50;92.20;;;;;;5078399;28;20178;-84
2021/03/01 10:49:55;;;;;;;23.20;10.40;;;4.40;91.80;;;;;;5078318;28;20261;-84
2021/03/01 10:52:27;;;;;;;20.10;10.73;;;4.30;92.10;;;;;;5096480;28;20685;-84
2021/03/01 10:55:00;;;;;;;18.53;9.90;;;4.30;92.10;;;;;;5096360;28;20243;-85
2021/03/01 10:57:27;;;;;;;20.93;11.07;;;4.50;92.20;;;;;;5078206;28;20183;-84
2021/03/01 11:00:03;;;;;;;19.60;10.13;;;4.50;91.80;;;;;;5096280;28;20167;-84
2021/03/01 11:02:40;;;;;;;20.33;9.43;;;4.40;91.60;;;;;;5078021;28;20265;-85
2021/03/01 11:05:18;;;;;;;20.17;9.73;;;4.60;91.90;;;;;;5077989;28;20182;-84
2021/03/01 11:07:48;;;;;;;18.40;9.47;;;4.60;91.70;;;;;;5078684;28;20216;-84
2021/03/01 11:10:15;;;;;;;19.23;9.57;;;4.60;91.80;;;;;;5096186;28;20248;-84
2021/03/01 11:12:44;;;;;;;19.20;10.20;;;4.60;91.60;;;;;;5096222;28;20163;-83
2021/03/01 11:15:12;;;;;;;19.77;9.90;;;4.60;91.70;;;;;;5096030;28;20179;-84
2021/03/01 11:17:41;;;;;;;18.30;9.33;;;4.60;91.90;;;;;;5077038;28;20178;-85
2021/03/01 11:20:08;;;;;;;18.60;9.90;;;4.50;91.60;;;;;;5077698;28;20207;-84
2021/03/01 11:22:37;;;;;;;17.93;10.30;;;4.50;91.80;;;;;;5077760;28;20205;-84
2021/03/01 11:25:11;;;;;;;21.57;10.40;;;4.70;91.80;;;;;;5095970;28;20669;-84
2021/03/01 11:27:43;;;;;;;22.10;10.57;;;4.60;91.60;;;;;;5095839;28;20182;-83
2021/03/01 11:30:17;;;;;;;20.70;10.90;;;4.80;91.70;;;;;;5096088;28;20246;-84
2021/03/01 11:32:51;;;;;;;21.07;10.90;;;4.80;91.40;;;;;;5095692;28;20220;-83
2021/03/01 11:35:25;;;;;;;18.77;10.23;;;4.80;91.30;;;;;;5095624;28;20243;-84
2021/03/01 11:37:58;;;;;;;18.67;9.87;;;4.80;91.30;;;;;;5095713;28;20244;-84
2021/03/01 11:40:30;;;;;;;17.43;9.53;;;4.80;90.90;;;;;;5077539;28;20178;-84
2021/03/01 11:43:03;;;;;;;18.27;10.30;;;4.80;90.90;;;;;;5095481;28;20183;-84
2021/03/01 11:45:34;;;;;;;18.07;10.13;;;4.90;90.80;;;;;;5096017;28;20599;-83
2021/03/01 11:48:04;;;;;;;19.17;10.00;;;4.90;90.80;;;;;;5095498;28;20174;-84
2021/03/01 11:50:41;;;;;;;19.13;11.17;;;4.90;90.80;;;;;;5077129;28;20183;-84
2021/03/01 11:53:13;;;;;;;19.63;10.53;;;5.00;90.90;;;;;;5097476;28;20191;-84
2021/03/01 11:55:44;;;;;;;18.37;10.33;;;5.10;90.60;;;;;;5096263;28;20234;-83
2021/03/01 11:58:19;;;;;;;19.23;10.37;;;5.10;90.40;;;;;;5095508;28;20161;-84
2021/03/01 12:00:45;;;;;;;16.77;10.57;;;5.20;90.40;;;;;;5095741;28;20160;-84
2021/03/01 12:03:13;;;;;;;17.63;10.80;;;5.20;90.40;;;;;;5077575;28;20195;-84
2021/03/01 12:05:47;;;;;;;21.00;10.37;;;5.30;90.20;;;;;;5095209;28;20181;-86
2021/03/01 12:08:26;;;;;;;19.20;10.60;;;5.40;90.30;;;;;;5076602;28;20181;-85
2021/03/01 12:11:00;;;;;;;18.43;10.90;;;5.50;90.20;;;;;;5077203;28;20172;-86
2021/03/01 12:13:33;;;;;;;20.10;13.07;;;5.50;89.90;;;;;;5076736;28;20192;-86
2021/03/01 12:16:04;;;;;;;19.23;11.77;;;5.30;89.30;;;;;;5095044;28;20207;-86
2021/03/01 12:18:38;;;;;;;23.60;12.40;;;5.30;89.60;;;;;;5095141;28;20204;-86
2021/03/01 12:21:09;;;;;;;20.73;11.77;;;5.30;89.60;;;;;;5076646;28;20164;-86
2021/03/01 12:23:44;;;;;;;19.07;11.07;;;5.40;89.40;;;;;;5094947;28;20562;-86
2021/03/01 12:26:21;;;;;;;17.13;10.63;;;5.40;89.30;;;;;;5076508;28;20177;-86
2021/03/01 12:28:53;;;;;;;21.50;10.83;;;5.50;89.30;;;;;;5075349;28;20182;-86
2021/03/01 12:31:27;;;;;;;19.77;10.20;;;5.40;89.10;;;;;;5076382;28;20187;-86
2021/03/01 12:33:59;;;;;;;19.33;10.50;;;5.40;89.30;;;;;;5076706;28;20200;-86
2021/03/01 12:36:31;;;;;;;17.17;9.57;;;5.20;89.70;;;;;;5094478;28;20207;-86
2021/03/01 12:39:04;;;;;;;17.53;9.90;;;5.10;89.80;;;;;;5094437;28;20178;-86
2021/03/01 12:41:34;;;;;;;17.97;10.93;;;5.00;90.00;;;;;;5076144;28;20228;-86
2021/03/01 12:44:09;;;;;;;19.70;11.60;;;5.10;90.30;;;;;;5094253;28;20199;-86
2021/03/01 12:46:46;;;;;;;19.97;11.03;;;5.20;90.50;;;;;;5076082;28;20173;-86
2021/03/01 12:49:20;;;;;;;19.50;10.67;;;5.10;90.50;;;;;;5094247;28;20170;-86
2021/03/01 12:51:59;;;;;;;21.53;10.77;;;5.10;90.60;;;;;;5094432;28;20175;-86
2021/03/01 12:54:25;;;;;;;20.37;11.13;;;5.10;90.70;;;;;;5094328;28;20273;-84
2021/03/01 12:57:00;;;;;;;19.93;11.93;;;5.10;90.70;;;;;;5075903;28;20247;-84
2021/03/01 12:59:30;;;;;;;23.83;11.43;;;5.10;90.60;;;;;;5094172;28;20243;-84
2021/03/01 13:02:07;;;;;;;18.93;10.70;;;5.20;90.90;;;;;;5094285;28;20155;-83
2021/03/01 13:04:41;;;;;;;20.97;11.37;;;5.40;90.70;;;;;;5093987;28;20208;-84
2021/03/01 13:07:16;;;;;;;17.43;10.43;;;5.60;90.40;;;;;;5093892;28;20177;-83
2021/03/01 13:09:47;;;;;;;20.57;11.03;;;5.60;89.70;;;;;;5094111;28;20524;-84
2021/03/01 13:12:21;;;;;;;22.00;11.27;;;5.30;90.00;;;;;;5093847;28;20572;-82
2021/03/01 13:14:54;;;;;;;23.47;12.33;;;5.30;90.50;;;;;;5093693;28;20194;-83